Terminal Aerodrome Forecast
Issued by NWS Charleston, SC

Home | Current Version | Previous Version | Text Only | Print | Product List | Glossary On
Versions: 1 2 3 4 5 6 7 8 9 10 11 12 13 14 15 16 17 18 19 20
657
FTUS42 KCHS 290527
TAFCHS
TAF
KCHS 290527Z 2906/3006 03010G19KT 6SM SHRA SCT008 OVC015
      TEMPO 2906/2910 3SM +SHRA BR BKN007 OVC012
     FM291500 03013G20KT 6SM SHRA SCT008 OVC018
     FM292000 32010KT P6SM -SHRA SCT008 BKN020=

USA.gov is the U.S. government's official web portal to all federal, state and local government web resources and services.